CheckWX is a tool to help pilots better visualize weather data.  It is not intended as a substitute for an official pre-flight weather briefing.

02:51:22 UTC

SBPB TAF
Prefeito Doutor João Silva Filho Airport
Parnaíba, Brazil
TAF SBPB 221000Z 2212/2312 09006KT 9999 SCT017 TX34/2217Z TN26/2311Z BECMG 2216/2218 06008KT SCT017 FEW025TCU BECMG 2220/2222 03006KT SCT017 BE CMG 2304/2306 12006KT RMK PFN

Mar-22@
12:00 UTC

Mar-22 @ 12:00 UTC

Mar-22@
16:00 UTC

Mar-22 @ 16:00 UTC

TAF SBPB 221000Z 2212/2312 09006KT 9999 SCT017 TX34/2217Z TN26/2311Z

Expired

Wind
  • 090° at 6 KTS
Cloud Levels
  • Scattered at 1,700' AGL

Mar-22@
16:00 UTC

Mar-22 @ 16:00 UTC

Mar-22@
20:00 UTC

Mar-22 @ 20:00 UTC

BECMG 2216/2218 06008KT SCT017 FEW025TCU

Expired

Wind
  • 060° at 8 KTS
Cloud Levels
  • Scattered at 1,700' AGL
  • Few at 2,500' AGL

Mar-22@
20:00 UTC

Mar-22 @ 20:00 UTC

Mar-23@
12:00 UTC

Mar-23 @ 12:00 UTC

BECMG 2220/2222 03006KT SCT017 BE CMG 2304/2306 12006KT RMK PFN

Becoming

Becoming Conditions expected by Fri, Mar 22, 2019 @ 22:00 UTC

Wind
  • 030° at 6 KTS
Cloud Levels
  • Scattered at 1,700' AGL